Time;durP1;ratioP1;P1;durP2;ratioP2;P2;SDS_P1;SDS_P2;PMS_P1;PMS_P2;Temp;Humidity;BMP_temperature;BMP_pressure;BME280_temperature;BME280_humidity;BME280_pressure;Samples;Min_cycle;Max_cycle;Signal;HPM_P1;HPM_P2
2021/02/06 00:00:43;;;;;;;7.05;5.749999;;;;;;;5.22;100;94577.42;;;;
2021/02/06 00:01:44;;;;;;;7.05;5.749999;;;;;;;5.22;100;94577.42;;;;
2021/02/06 00:02:44;;;;;;;7.05;5.749999;;;;;;;5.22;100;94577.42;;;;
2021/02/06 00:03:44;;;;;;;7.05;5.749999;;;;;;;5.22;100;94577.42;;;;
2021/02/06 00:04:45;;;;;;;7.05;5.749999;;;;;;;5.22;100;94577.42;;;;
2021/02/06 00:05:45;;;;;;;7.05;5.749999;;;;;;;5.22;100;94577.42;;;;
2021/02/06 00:06:46;;;;;;;7.05;5.749999;;;;;;;5.22;100;94577.42;;;;
2021/02/06 00:07:46;;;;;;;7.05;5.749999;;;;;;;5.22;100;94577.42;;;;
2021/02/06 00:08:47;;;;;;;7.05;5.749999;;;;;;;5.22;100;94577.42;;;;
2021/02/06 00:09:48;;;;;;;8.550001;5.799999;;;;;;;5.26;100;94587.98;;;;
2021/02/06 00:10:48;;;;;;;8.550001;5.799999;;;;;;;5.26;100;94587.98;;;;
2021/02/06 00:11:49;;;;;;;8.550001;5.799999;;;;;;;5.26;100;94587.98;;;;
2021/02/06 00:12:49;;;;;;;8.550001;5.799999;;;;;;;5.26;100;94587.98;;;;
2021/02/06 00:13:50;;;;;;;8.550001;5.799999;;;;;;;5.26;100;94587.98;;;;
2021/02/06 00:14:50;;;;;;;8.550001;5.799999;;;;;;;5.26;100;94587.98;;;;
2021/02/06 00:15:52;;;;;;;8.550001;5.799999;;;;;;;5.26;100;94587.98;;;;
2021/02/06 00:16:53;;;;;;;8.550001;5.799999;;;;;;;5.26;100;94587.98;;;;
2021/02/06 00:17:53;;;;;;;8.550001;5.799999;;;;;;;5.26;100;94587.98;;;;
2021/02/06 00:18:54;;;;;;;8.550001;5.799999;;;;;;;5.26;100;94587.98;;;;
2021/02/06 00:19:54;;;;;;;8.550001;5.799999;;;;;;;5.26;100;94587.98;;;;
2021/02/06 00:20:57;;;;;;;7.249999;5.65;;;;;;;5.28;100;94576.14;;;;
2021/02/06 00:21:57;;;;;;;7.249999;5.65;;;;;;;5.28;100;94576.14;;;;
2021/02/06 00:22:58;;;;;;;7.249999;5.65;;;;;;;5.28;100;94576.14;;;;
2021/02/06 00:23:58;;;;;;;7.249999;5.65;;;;;;;5.28;100;94576.14;;;;
2021/02/06 00:25:00;;;;;;;7.249999;5.65;;;;;;;5.28;100;94576.14;;;;
2021/02/06 00:26:00;;;;;;;7.249999;5.65;;;;;;;5.28;100;94576.14;;;;
2021/02/06 00:27:01;;;;;;;7.249999;5.65;;;;;;;5.28;100;94576.14;;;;
2021/02/06 00:28:02;;;;;;;7.249999;5.65;;;;;;;5.28;100;94576.14;;;;
2021/02/06 00:29:03;;;;;;;7.249999;5.65;;;;;;;5.28;100;94576.14;;;;
2021/02/06 00:30:03;;;;;;;7.249999;5.65;;;;;;;5.28;100;94576.14;;;;
2021/02/06 00:31:05;;;;;;;8.050001;5.7;;;;;;;5.22;100;94565.47;;;;
2021/02/06 00:32:06;;;;;;;8.050001;5.7;;;;;;;5.22;100;94565.47;;;;
2021/02/06 00:33:07;;;;;;;8.050001;5.7;;;;;;;5.22;100;94565.47;;;;
2021/02/06 00:34:07;;;;;;;8.050001;5.7;;;;;;;5.22;100;94565.47;;;;
2021/02/06 00:35:08;;;;;;;8.050001;5.7;;;;;;;5.22;100;94565.47;;;;
2021/02/06 00:36:09;;;;;;;8.050001;5.7;;;;;;;5.22;100;94565.47;;;;
2021/02/06 00:37:10;;;;;;;8.050001;5.7;;;;;;;5.22;100;94565.47;;;;
2021/02/06 00:38:10;;;;;;;8.050001;5.7;;;;;;;5.22;100;94565.47;;;;
2021/02/06 00:39:11;;;;;;;8.050001;5.7;;;;;;;5.22;100;94565.47;;;;
2021/02/06 00:40:13;;;;;;;8.050001;5.7;;;;;;;5.22;100;94565.47;;;;
2021/02/06 00:41:14;;;;;;;8.050001;5.7;;;;;;;5.22;100;94565.47;;;;
2021/02/06 00:42:14;;;;;;;7.6;5.450001;;;;;;;5.07;100;94546.7;;;;
2021/02/06 00:43:15;;;;;;;7.6;5.450001;;;;;;;5.07;100;94546.7;;;;
2021/02/06 00:44:15;;;;;;;7.6;5.450001;;;;;;;5.07;100;94546.7;;;;
2021/02/06 00:45:16;;;;;;;7.6;5.450001;;;;;;;5.07;100;94546.7;;;;
2021/02/06 00:46:16;;;;;;;7.6;5.450001;;;;;;;5.07;100;94546.7;;;;
2021/02/06 00:47:17;;;;;;;7.6;5.450001;;;;;;;5.07;100;94546.7;;;;
2021/02/06 00:48:17;;;;;;;7.6;5.450001;;;;;;;5.07;100;94546.7;;;;
2021/02/06 00:49:18;;;;;;;7.6;5.450001;;;;;;;5.07;100;94546.7;;;;
2021/02/06 00:50:18;;;;;;;7.6;5.450001;;;;;;;5.07;100;94546.7;;;;
2021/02/06 00:51:19;;;;;;;7.6;5.450001;;;;;;;5.07;100;94546.7;;;;
2021/02/06 00:52:19;;;;;;;7.6;5.450001;;;;;;;5.07;100;94546.7;;;;
2021/02/06 00:53:20;;;;;;;7.95;6.050001;;;;;;;4.82;100;94533.45;;;;
2021/02/06 00:54:20;;;;;;;7.95;6.050001;;;;;;;4.82;100;94533.45;;;;
2021/02/06 00:55:21;;;;;;;7.95;6.050001;;;;;;;4.82;100;94533.45;;;;
2021/02/06 00:56:21;;;;;;;7.95;6.050001;;;;;;;4.82;100;94533.45;;;;
2021/02/06 00:57:22;;;;;;;7.95;6.050001;;;;;;;4.82;100;94533.45;;;;
2021/02/06 00:58:22;;;;;;;7.95;6.050001;;;;;;;4.82;100;94533.45;;;;
2021/02/06 00:59:22;;;;;;;7.95;6.050001;;;;;;;4.82;100;94533.45;;;;
2021/02/06 01:00:23;;;;;;;7.95;6.050001;;;;;;;4.82;100;94533.45;;;;
2021/02/06 01:01:23;;;;;;;7.95;6.050001;;;;;;;4.82;100;94533.45;;;;
2021/02/06 01:02:24;;;;;;;7.95;6.050001;;;;;;;4.82;100;94533.45;;;;
2021/02/06 01:03:24;;;;;;;8.35;6.200001;;;;;;;4.57;100;94535.18;;;;
2021/02/06 01:04:25;;;;;;;8.35;6.200001;;;;;;;4.57;100;94535.18;;;;
2021/02/06 01:05:25;;;;;;;8.35;6.200001;;;;;;;4.57;100;94535.18;;;;
2021/02/06 01:06:26;;;;;;;8.35;6.200001;;;;;;;4.57;100;94535.18;;;;
2021/02/06 01:07:26;;;;;;;8.35;6.200001;;;;;;;4.57;100;94535.18;;;;
2021/02/06 01:08:27;;;;;;;8.35;6.200001;;;;;;;4.57;100;94535.18;;;;
2021/02/06 01:09:27;;;;;;;8.35;6.200001;;;;;;;4.57;100;94535.18;;;;
2021/02/06 01:10:28;;;;;;;8.35;6.200001;;;;;;;4.57;100;94535.18;;;;
2021/02/06 01:11:28;;;;;;;8.35;6.200001;;;;;;;4.57;100;94535.18;;;;
2021/02/06 01:12:29;;;;;;;8.35;6.200001;;;;;;;4.57;100;94535.18;;;;
2021/02/06 01:13:29;;;;;;;8.35;6.200001;;;;;;;4.57;100;94535.18;;;;
2021/02/06 01:14:30;;;;;;;10.1;7.450001;;;;;;;4.4;100;94561.74;;;;
2021/02/06 01:15:30;;;;;;;10.1;7.450001;;;;;;;4.4;100;94561.74;;;;
2021/02/06 01:16:31;;;;;;;10.1;7.450001;;;;;;;4.4;100;94561.74;;;;
2021/02/06 01:17:31;;;;;;;10.1;7.450001;;;;;;;4.4;100;94561.74;;;;
2021/02/06 01:18:32;;;;;;;10.1;7.450001;;;;;;;4.4;100;94561.74;;;;
2021/02/06 01:19:32;;;;;;;10.1;7.450001;;;;;;;4.4;100;94561.74;;;;
2021/02/06 01:20:32;;;;;;;10.1;7.450001;;;;;;;4.4;100;94561.74;;;;
2021/02/06 01:21:33;;;;;;;10.1;7.450001;;;;;;;4.4;100;94561.74;;;;
2021/02/06 01:22:33;;;;;;;10.1;7.450001;;;;;;;4.4;100;94561.74;;;;
2021/02/06 01:23:34;;;;;;;10.1;7.450001;;;;;;;4.4;100;94561.74;;;;
2021/02/06 01:24:34;;;;;;;13.65;7.45;;;;;;;4.23;100;94548.99;;;;
2021/02/06 01:25:35;;;;;;;13.65;7.45;;;;;;;4.23;100;94548.99;;;;
2021/02/06 01:26:35;;;;;;;13.65;7.45;;;;;;;4.23;100;94548.99;;;;
2021/02/06 01:27:36;;;;;;;13.65;7.45;;;;;;;4.23;100;94548.99;;;;
2021/02/06 01:28:37;;;;;;;13.65;7.45;;;;;;;4.23;100;94548.99;;;;
2021/02/06 01:29:37;;;;;;;13.65;7.45;;;;;;;4.23;100;94548.99;;;;
2021/02/06 01:30:38;;;;;;;13.65;7.45;;;;;;;4.23;100;94548.99;;;;
2021/02/06 01:31:38;;;;;;;13.65;7.45;;;;;;;4.23;100;94548.99;;;;
2021/02/06 01:32:39;;;;;;;13.65;7.45;;;;;;;4.23;100;94548.99;;;;
2021/02/06 01:33:39;;;;;;;13.65;7.45;;;;;;;4.23;100;94548.99;;;;
2021/02/06 01:34:40;;;;;;;13.65;7.45;;;;;;;4.23;100;94548.99;;;;
2021/02/06 01:35:40;;;;;;;11.45;7.849999;;;;;;;4.09;100;94539.84;;;;
2021/02/06 01:36:41;;;;;;;11.45;7.849999;;;;;;;4.09;100;94539.84;;;;
2021/02/06 01:37:41;;;;;;;11.45;7.849999;;;;;;;4.09;100;94539.84;;;;
2021/02/06 01:38:42;;;;;;;11.45;7.849999;;;;;;;4.09;100;94539.84;;;;
2021/02/06 01:39:42;;;;;;;11.45;7.849999;;;;;;;4.09;100;94539.84;;;;
2021/02/06 01:40:43;;;;;;;11.45;7.849999;;;;;;;4.09;100;94539.84;;;;
2021/02/06 01:41:43;;;;;;;11.45;7.849999;;;;;;;4.09;100;94539.84;;;;
2021/02/06 01:42:44;;;;;;;11.45;7.849999;;;;;;;4.09;100;94539.84;;;;
2021/02/06 01:43:44;;;;;;;11.45;7.849999;;;;;;;4.09;100;94539.84;;;;
2021/02/06 01:44:44;;;;;;;11.45;7.849999;;;;;;;4.09;100;94539.84;;;;
2021/02/06 01:45:45;;;;;;;9.599999;7.950001;;;;;;;3.99;100;94525.19;;;;
2021/02/06 01:46:45;;;;;;;9.599999;7.950001;;;;;;;3.99;100;94525.19;;;;
2021/02/06 01:47:46;;;;;;;9.599999;7.950001;;;;;;;3.99;100;94525.19;;;;
2021/02/06 01:48:48;;;;;;;9.599999;7.950001;;;;;;;3.99;100;94525.19;;;;
2021/02/06 01:49:48;;;;;;;9.599999;7.950001;;;;;;;3.99;100;94525.19;;;;
2021/02/06 01:50:49;;;;;;;9.599999;7.950001;;;;;;;3.99;100;94525.19;;;;
2021/02/06 01:51:50;;;;;;;9.599999;7.950001;;;;;;;3.99;100;94525.19;;;;
2021/02/06 01:52:50;;;;;;;9.599999;7.950001;;;;;;;3.99;100;94525.19;;;;
2021/02/06 01:53:51;;;;;;;9.599999;7.950001;;;;;;;3.99;100;94525.19;;;;
2021/02/06 01:54:52;;;;;;;9.599999;7.950001;;;;;;;3.99;100;94525.19;;;;
2021/02/06 01:55:52;;;;;;;9.599999;7.950001;;;;;;;3.99;100;94525.19;;;;
2021/02/06 01:56:53;;;;;;;11.5;8.799999;;;;;;;4.02;100;94507.01;;;;
2021/02/06 01:57:54;;;;;;;11.5;8.799999;;;;;;;4.02;100;94507.01;;;;
2021/02/06 01:58:56;;;;;;;11.5;8.799999;;;;;;;4.02;100;94507.01;;;;
2021/02/06 01:59:57;;;;;;;11.5;8.799999;;;;;;;4.02;100;94507.01;;;;
2021/02/06 02:00:57;;;;;;;11.5;8.799999;;;;;;;4.02;100;94507.01;;;;
2021/02/06 02:01:58;;;;;;;11.5;8.799999;;;;;;;4.02;100;94507.01;;;;
2021/02/06 02:02:59;;;;;;;11.5;8.799999;;;;;;;4.02;100;94507.01;;;;
2021/02/06 02:03:59;;;;;;;11.5;8.799999;;;;;;;4.02;100;94507.01;;;;
2021/02/06 02:05:00;;;;;;;11.5;8.799999;;;;;;;4.02;100;94507.01;;;;
2021/02/06 02:06:01;;;;;;;11.5;8.799999;;;;;;;4.02;100;94507.01;;;;
2021/02/06 02:07:18;;;;;;;12.25;9.400002;;;;;;;4.02;100;94470.03;;;;
2021/02/06 02:08:33;;;;;;;12.25;9.400002;;;;;;;4.02;100;94470.03;;;;
2021/02/06 02:09:41;;;;;;;12.25;9.400002;;;;;;;4.02;100;94470.03;;;;
2021/02/06 02:10:53;;;;;;;12.25;9.400002;;;;;;;4.02;100;94470.03;;;;
2021/02/06 02:12:12;;;;;;;12.25;9.400002;;;;;;;4.02;100;94470.03;;;;
2021/02/06 02:13:22;;;;;;;12.25;9.400002;;;;;;;4.02;100;94470.03;;;;
2021/02/06 02:14:35;;;;;;;12.25;9.400002;;;;;;;4.02;100;94470.03;;;;
2021/02/06 02:15:47;;;;;;;12.25;9.400002;;;;;;;4.02;100;94470.03;;;;
2021/02/06 02:16:55;;;;;;;12.25;9.400002;;;;;;;4.02;100;94470.03;;;;
2021/02/06 02:18:04;;;;;;;9.35;8.2;;;;;;;3.99;100;94460.3;;;;
2021/02/06 02:19:12;;;;;;;9.35;8.2;;;;;;;3.99;100;94460.3;;;;
2021/02/06 02:20:37;;;;;;;9.35;8.2;;;;;;;3.99;100;94460.3;;;;
2021/02/06 02:21:48;;;;;;;9.35;8.2;;;;;;;3.99;100;94460.3;;;;
2021/02/06 02:22:51;;;;;;;9.35;8.2;;;;;;;3.99;100;94460.3;;;;
2021/02/06 02:24:10;;;;;;;9.35;8.2;;;;;;;3.99;100;94460.3;;;;
2021/02/06 02:25:25;;;;;;;9.35;8.2;;;;;;;3.99;100;94460.3;;;;
2021/02/06 02:26:40;;;;;;;9.35;8.2;;;;;;;3.99;100;94460.3;;;;
2021/02/06 02:28:31;;;;;;;9.650001;8.350001;;;;;;;4.02;100;94460.27;;;;
2021/02/06 02:29:54;;;;;;;9.650001;8.350001;;;;;;;4.02;100;94460.27;;;;
2021/02/06 02:31:03;;;;;;;9.650001;8.350001;;;;;;;4.02;100;94460.27;;;;
2021/02/06 02:32:03;;;;;;;9.650001;8.350001;;;;;;;4.02;100;94460.27;;;;
2021/02/06 02:33:07;;;;;;;9.650001;8.350001;;;;;;;4.02;100;94460.27;;;;
2021/02/06 02:34:09;;;;;;;9.650001;8.350001;;;;;;;4.02;100;94460.27;;;;
2021/02/06 02:35:12;;;;;;;9.650001;8.350001;;;;;;;4.02;100;94460.27;;;;
2021/02/06 02:36:20;;;;;;;9.650001;8.350001;;;;;;;4.02;100;94460.27;;;;
2021/02/06 02:37:24;;;;;;;9.650001;8.350001;;;;;;;4.02;100;94460.27;;;;
2021/02/06 02:38:26;;;;;;;9.650001;8.350001;;;;;;;4.02;100;94460.27;;;;
2021/02/06 02:39:28;;;;;;;11.35;8.599998;;;;;;;4;100;94457;;;;
2021/02/06 02:40:29;;;;;;;11.35;8.599998;;;;;;;4;100;94457;;;;
2021/02/06 02:41:31;;;;;;;11.35;8.599998;;;;;;;4;100;94457;;;;
2021/02/06 02:42:33;;;;;;;11.35;8.599998;;;;;;;4;100;94457;;;;
2021/02/06 02:43:36;;;;;;;11.35;8.599998;;;;;;;4;100;94457;;;;
2021/02/06 02:44:39;;;;;;;11.35;8.599998;;;;;;;4;100;94457;;;;
2021/02/06 02:45:40;;;;;;;11.35;8.599998;;;;;;;4;100;94457;;;;
2021/02/06 02:46:41;;;;;;;11.35;8.599998;;;;;;;4;100;94457;;;;
2021/02/06 02:47:44;;;;;;;11.35;8.599998;;;;;;;4;100;94457;;;;
2021/02/06 02:48:45;;;;;;;11.35;8.599998;;;;;;;4;100;94457;;;;
2021/02/06 02:49:47;;;;;;;11.35;8.599998;;;;;;;4;100;94457;;;;
2021/02/06 02:50:48;;;;;;;9.35;7.9;;;;;;;3.93;100;94447.38;;;;
2021/02/06 02:51:49;;;;;;;9.35;7.9;;;;;;;3.93;100;94447.38;;;;
2021/02/06 02:52:51;;;;;;;9.35;7.9;;;;;;;3.93;100;94447.38;;;;
2021/02/06 02:53:52;;;;;;;9.35;7.9;;;;;;;3.93;100;94447.38;;;;
2021/02/06 02:54:53;;;;;;;9.35;7.9;;;;;;;3.93;100;94447.38;;;;
2021/02/06 02:55:54;;;;;;;9.35;7.9;;;;;;;3.93;100;94447.38;;;;
2021/02/06 02:56:55;;;;;;;9.35;7.9;;;;;;;3.93;100;94447.38;;;;
2021/02/06 02:57:56;;;;;;;9.35;7.9;;;;;;;3.93;100;94447.38;;;;
2021/02/06 02:58:57;;;;;;;9.35;7.9;;;;;;;3.93;100;94447.38;;;;
2021/02/06 02:59:57;;;;;;;9.35;7.9;;;;;;;3.93;100;94447.38;;;;
2021/02/06 03:00:59;;;;;;;9.4;7.55;;;;;;;3.8;100;94434.01;;;;
2021/02/06 03:02:00;;;;;;;9.4;7.55;;;;;;;3.8;100;94434.01;;;;
2021/02/06 03:03:02;;;;;;;9.4;7.55;;;;;;;3.8;100;94434.01;;;;
2021/02/06 03:04:03;;;;;;;9.4;7.55;;;;;;;3.8;100;94434.01;;;;
2021/02/06 03:05:16;;;;;;;9.4;7.55;;;;;;;3.8;100;94434.01;;;;
2021/02/06 03:06:21;;;;;;;9.4;7.55;;;;;;;3.8;100;94434.01;;;;
2021/02/06 03:07:22;;;;;;;9.4;7.55;;;;;;;3.8;100;94434.01;;;;
2021/02/06 03:08:29;;;;;;;9.4;7.55;;;;;;;3.8;100;94434.01;;;;
2021/02/06 03:09:34;;;;;;;9.4;7.55;;;;;;;3.8;100;94434.01;;;;
2021/02/06 03:10:36;;;;;;;9.4;7.55;;;;;;;3.8;100;94434.01;;;;
2021/02/06 03:11:42;;;;;;;9.300001;7.5;;;;;;;3.74;100;94420.19;;;;
2021/02/06 03:12:44;;;;;;;9.300001;7.5;;;;;;;3.74;100;94420.19;;;;
2021/02/06 03:13:47;;;;;;;9.300001;7.5;;;;;;;3.74;100;94420.19;;;;
2021/02/06 03:14:50;;;;;;;9.300001;7.5;;;;;;;3.74;100;94420.19;;;;
2021/02/06 03:15:51;;;;;;;9.300001;7.5;;;;;;;3.74;100;94420.19;;;;
2021/02/06 03:16:53;;;;;;;9.300001;7.5;;;;;;;3.74;100;94420.19;;;;
2021/02/06 03:17:54;;;;;;;9.300001;7.5;;;;;;;3.74;100;94420.19;;;;
2021/02/06 03:18:57;;;;;;;9.300001;7.5;;;;;;;3.74;100;94420.19;;;;
2021/02/06 03:19:59;;;;;;;9.300001;7.5;;;;;;;3.74;100;94420.19;;;;
2021/02/06 03:21:01;;;;;;;9.300001;7.5;;;;;;;3.74;100;94420.19;;;;
2021/02/06 03:22:02;;;;;;;9.85;7;;;;;;;3.65;100;94424.56;;;;
2021/02/06 03:23:03;;;;;;;9.85;7;;;;;;;3.65;100;94424.56;;;;
2021/02/06 03:24:06;;;;;;;9.85;7;;;;;;;3.65;100;94424.56;;;;
2021/02/06 03:25:08;;;;;;;9.85;7;;;;;;;3.65;100;94424.56;;;;
2021/02/06 03:26:10;;;;;;;9.85;7;;;;;;;3.65;100;94424.56;;;;
2021/02/06 03:27:11;;;;;;;9.85;7;;;;;;;3.65;100;94424.56;;;;
2021/02/06 03:28:12;;;;;;;9.85;7;;;;;;;3.65;100;94424.56;;;;
2021/02/06 03:29:13;;;;;;;9.85;7;;;;;;;3.65;100;94424.56;;;;
2021/02/06 03:30:13;;;;;;;9.85;7;;;;;;;3.65;100;94424.56;;;;
2021/02/06 03:31:14;;;;;;;9.85;7;;;;;;;3.65;100;94424.56;;;;
2021/02/06 03:32:15;;;;;;;9.85;7;;;;;;;3.65;100;94424.56;;;;
2021/02/06 03:33:16;;;;;;;8.65;7.55;;;;;;;3.73;100;94421.65;;;;
2021/02/06 03:34:18;;;;;;;8.65;7.55;;;;;;;3.73;100;94421.65;;;;
2021/02/06 03:35:18;;;;;;;8.65;7.55;;;;;;;3.73;100;94421.65;;;;
2021/02/06 03:36:19;;;;;;;8.65;7.55;;;;;;;3.73;100;94421.65;;;;
2021/02/06 03:37:19;;;;;;;8.65;7.55;;;;;;;3.73;100;94421.65;;;;
2021/02/06 03:38:20;;;;;;;8.65;7.55;;;;;;;3.73;100;94421.65;;;;
2021/02/06 03:39:20;;;;;;;8.65;7.55;;;;;;;3.73;100;94421.65;;;;
2021/02/06 03:40:21;;;;;;;8.65;7.55;;;;;;;3.73;100;94421.65;;;;
2021/02/06 03:41:21;;;;;;;8.65;7.55;;;;;;;3.73;100;94421.65;;;;
2021/02/06 03:42:22;;;;;;;8.65;7.55;;;;;;;3.73;100;94421.65;;;;
2021/02/06 03:43:22;;;;;;;8.4;6.5;;;;;;;3.77;100;94424.29;;;;
2021/02/06 03:44:23;;;;;;;8.4;6.5;;;;;;;3.77;100;94424.29;;;;
2021/02/06 03:45:23;;;;;;;8.4;6.5;;;;;;;3.77;100;94424.29;;;;
2021/02/06 03:46:24;;;;;;;8.4;6.5;;;;;;;3.77;100;94424.29;;;;
2021/02/06 03:47:25;;;;;;;8.4;6.5;;;;;;;3.77;100;94424.29;;;;
2021/02/06 03:48:25;;;;;;;8.4;6.5;;;;;;;3.77;100;94424.29;;;;
2021/02/06 03:49:26;;;;;;;8.4;6.5;;;;;;;3.77;100;94424.29;;;;
2021/02/06 03:50:26;;;;;;;8.4;6.5;;;;;;;3.77;100;94424.29;;;;
2021/02/06 03:51:27;;;;;;;8.4;6.5;;;;;;;3.77;100;94424.29;;;;
2021/02/06 03:52:27;;;;;;;8.4;6.5;;;;;;;3.77;100;94424.29;;;;
2021/02/06 03:53:28;;;;;;;8.4;6.5;;;;;;;3.77;100;94424.29;;;;
2021/02/06 03:54:28;;;;;;;8.450001;7.5;;;;;;;3.89;100;94416.71;;;;
2021/02/06 03:55:29;;;;;;;8.450001;7.5;;;;;;;3.89;100;94416.71;;;;
2021/02/06 03:56:29;;;;;;;8.450001;7.5;;;;;;;3.89;100;94416.71;;;;
2021/02/06 03:57:30;;;;;;;8.450001;7.5;;;;;;;3.89;100;94416.71;;;;
2021/02/06 03:58:30;;;;;;;8.450001;7.5;;;;;;;3.89;100;94416.71;;;;
2021/02/06 03:59:31;;;;;;;8.450001;7.5;;;;;;;3.89;100;94416.71;;;;
2021/02/06 04:00:31;;;;;;;8.450001;7.5;;;;;;;3.89;100;94416.71;;;;
2021/02/06 04:01:32;;;;;;;8.450001;7.5;;;;;;;3.89;100;94416.71;;;;
2021/02/06 04:02:32;;;;;;;8.450001;7.5;;;;;;;3.89;100;94416.71;;;;
2021/02/06 04:03:33;;;;;;;8.450001;7.5;;;;;;;3.89;100;94416.71;;;;
2021/02/06 04:04:33;;;;;;;8.1;7.3;;;;;;;4.04;100;94410.64;;;;
2021/02/06 04:05:34;;;;;;;8.1;7.3;;;;;;;4.04;100;94410.64;;;;
2021/02/06 04:06:34;;;;;;;8.1;7.3;;;;;;;4.04;100;94410.64;;;;
2021/02/06 04:07:35;;;;;;;8.1;7.3;;;;;;;4.04;100;94410.64;;;;
2021/02/06 04:08:35;;;;;;;8.1;7.3;;;;;;;4.04;100;94410.64;;;;
2021/02/06 04:09:36;;;;;;;8.1;7.3;;;;;;;4.04;100;94410.64;;;;
2021/02/06 04:10:36;;;;;;;8.1;7.3;;;;;;;4.04;100;94410.64;;;;
2021/02/06 04:11:37;;;;;;;8.1;7.3;;;;;;;4.04;100;94410.64;;;;
2021/02/06 04:12:37;;;;;;;8.1;7.3;;;;;;;4.04;100;94410.64;;;;
2021/02/06 04:13:38;;;;;;;8.1;7.3;;;;;;;4.04;100;94410.64;;;;
2021/02/06 04:14:39;;;;;;;8.1;7.3;;;;;;;4.04;100;94410.64;;;;
2021/02/06 04:15:39;;;;;;;12.1;8.4;;;;;;;4.13;100;94400.81;;;;
2021/02/06 04:16:39;;;;;;;12.1;8.4;;;;;;;4.13;100;94400.81;;;;
2021/02/06 04:17:40;;;;;;;12.1;8.4;;;;;;;4.13;100;94400.81;;;;
2021/02/06 04:18:40;;;;;;;12.1;8.4;;;;;;;4.13;100;94400.81;;;;
2021/02/06 04:19:41;;;;;;;12.1;8.4;;;;;;;4.13;100;94400.81;;;;
2021/02/06 04:20:41;;;;;;;12.1;8.4;;;;;;;4.13;100;94400.81;;;;
2021/02/06 04:21:42;;;;;;;12.1;8.4;;;;;;;4.13;100;94400.81;;;;
2021/02/06 04:22:42;;;;;;;12.1;8.4;;;;;;;4.13;100;94400.81;;;;
2021/02/06 04:23:43;;;;;;;12.1;8.4;;;;;;;4.13;100;94400.81;;;;
2021/02/06 04:24:44;;;;;;;12.1;8.4;;;;;;;4.13;100;94400.81;;;;
2021/02/06 04:25:44;;;;;;;12.1;8.4;;;;;;;4.13;100;94400.81;;;;
2021/02/06 04:26:45;;;;;;;9.25;7.65;;;;;;;4.23;100;94405.55;;;;
2021/02/06 04:27:45;;;;;;;9.25;7.65;;;;;;;4.23;100;94405.55;;;;
2021/02/06 04:28:46;;;;;;;9.25;7.65;;;;;;;4.23;100;94405.55;;;;
2021/02/06 04:29:46;;;;;;;9.25;7.65;;;;;;;4.23;100;94405.55;;;;
2021/02/06 04:30:47;;;;;;;9.25;7.65;;;;;;;4.23;100;94405.55;;;;
2021/02/06 04:31:47;;;;;;;9.25;7.65;;;;;;;4.23;100;94405.55;;;;
2021/02/06 04:32:48;;;;;;;9.25;7.65;;;;;;;4.23;100;94405.55;;;;
2021/02/06 04:33:48;;;;;;;9.25;7.65;;;;;;;4.23;100;94405.55;;;;
2021/02/06 04:34:49;;;;;;;9.25;7.65;;;;;;;4.23;100;94405.55;;;;
2021/02/06 04:35:49;;;;;;;9.25;7.65;;;;;;;4.23;100;94405.55;;;;
2021/02/06 04:36:50;;;;;;;8.6;7.35;;;;;;;4.31;100;94391.61;;;;
2021/02/06 04:37:50;;;;;;;8.6;7.35;;;;;;;4.31;100;94391.61;;;;
2021/02/06 04:38:51;;;;;;;8.6;7.35;;;;;;;4.31;100;94391.61;;;;
2021/02/06 04:39:51;;;;;;;8.6;7.35;;;;;;;4.31;100;94391.61;;;;
2021/02/06 04:40:52;;;;;;;8.6;7.35;;;;;;;4.31;100;94391.61;;;;
2021/02/06 04:41:52;;;;;;;8.6;7.35;;;;;;;4.31;100;94391.61;;;;
2021/02/06 04:42:53;;;;;;;8.6;7.35;;;;;;;4.31;100;94391.61;;;;
2021/02/06 04:43:53;;;;;;;8.6;7.35;;;;;;;4.31;100;94391.61;;;;
2021/02/06 04:44:55;;;;;;;8.6;7.35;;;;;;;4.31;100;94391.61;;;;
2021/02/06 04:45:55;;;;;;;8.6;7.35;;;;;;;4.31;100;94391.61;;;;
2021/02/06 04:46:56;;;;;;;8.6;7.35;;;;;;;4.31;100;94391.61;;;;
2021/02/06 04:47:57;;;;;;;8.150002;6.5;;;;;;;4.34;100;94396.41;;;;
2021/02/06 04:48:58;;;;;;;8.150002;6.5;;;;;;;4.34;100;94396.41;;;;
2021/02/06 04:50:01;;;;;;;8.150002;6.5;;;;;;;4.34;100;94396.41;;;;
2021/02/06 04:51:04;;;;;;;8.150002;6.5;;;;;;;4.34;100;94396.41;;;;
2021/02/06 04:52:05;;;;;;;8.150002;6.5;;;;;;;4.34;100;94396.41;;;;
2021/02/06 04:53:06;;;;;;;8.150002;6.5;;;;;;;4.34;100;94396.41;;;;
2021/02/06 04:54:07;;;;;;;8.150002;6.5;;;;;;;4.34;100;94396.41;;;;
2021/02/06 04:55:09;;;;;;;8.150002;6.5;;;;;;;4.34;100;94396.41;;;;
2021/02/06 04:56:10;;;;;;;8.150002;6.5;;;;;;;4.34;100;94396.41;;;;
2021/02/06 04:57:11;;;;;;;8.150002;6.5;;;;;;;4.34;100;94396.41;;;;
2021/02/06 04:58:13;;;;;;;8.25;6.900001;;;;;;;4.25;100;94383.54;;;;
2021/02/06 04:59:14;;;;;;;8.25;6.900001;;;;;;;4.25;100;94383.54;;;;
2021/02/06 05:00:15;;;;;;;8.25;6.900001;;;;;;;4.25;100;94383.54;;;;
2021/02/06 05:01:17;;;;;;;8.25;6.900001;;;;;;;4.25;100;94383.54;;;;
2021/02/06 05:02:18;;;;;;;8.25;6.900001;;;;;;;4.25;100;94383.54;;;;
2021/02/06 05:03:18;;;;;;;8.25;6.900001;;;;;;;4.25;100;94383.54;;;;
2021/02/06 05:04:19;;;;;;;8.25;6.900001;;;;;;;4.25;100;94383.54;;;;
2021/02/06 05:05:19;;;;;;;8.25;6.900001;;;;;;;4.25;100;94383.54;;;;
2021/02/06 05:06:21;;;;;;;8.25;6.900001;;;;;;;4.25;100;94383.54;;;;
2021/02/06 05:07:22;;;;;;;8.25;6.900001;;;;;;;4.25;100;94383.54;;;;
2021/02/06 05:08:22;;;;;;;8.25;6.900001;;;;;;;4.25;100;94383.54;;;;
2021/02/06 05:09:22;;;;;;;9.549999;7.05;;;;;;;4.25;100;94373.68;;;;
2021/02/06 05:10:56;;;;;;;9.549999;7.05;;;;;;;4.25;100;94373.68;;;;
2021/02/06 05:11:57;;;;;;;9.549999;7.05;;;;;;;4.25;100;94373.68;;;;
2021/02/06 05:12:57;;;;;;;9.549999;7.05;;;;;;;4.25;100;94373.68;;;;
2021/02/06 05:13:59;;;;;;;9.549999;7.05;;;;;;;4.25;100;94373.68;;;;
2021/02/06 05:15:04;;;;;;;9.549999;7.05;;;;;;;4.25;100;94373.68;;;;
2021/02/06 05:16:09;;;;;;;9.549999;7.05;;;;;;;4.25;100;94373.68;;;;
2021/02/06 05:17:11;;;;;;;9.549999;7.05;;;;;;;4.25;100;94373.68;;;;
2021/02/06 05:18:13;;;;;;;9.549999;7.05;;;;;;;4.25;100;94373.68;;;;
2021/02/06 05:19:32;;;;;;;7.800001;6.55;;;;;;;4.43;100;94375.56;;;;
2021/02/06 05:20:36;;;;;;;7.800001;6.55;;;;;;;4.43;100;94375.56;;;;
2021/02/06 05:21:43;;;;;;;7.800001;6.55;;;;;;;4.43;100;94375.56;;;;
2021/02/06 05:22:44;;;;;;;7.800001;6.55;;;;;;;4.43;100;94375.56;;;;
2021/02/06 05:23:45;;;;;;;7.800001;6.55;;;;;;;4.43;100;94375.56;;;;
2021/02/06 05:24:49;;;;;;;7.800001;6.55;;;;;;;4.43;100;94375.56;;;;
2021/02/06 05:26:10;;;;;;;7.800001;6.55;;;;;;;4.43;100;94375.56;;;;
2021/02/06 05:27:19;;;;;;;7.800001;6.55;;;;;;;4.43;100;94375.56;;;;
2021/02/06 05:28:22;;;;;;;7.800001;6.55;;;;;;;4.43;100;94375.56;;;;
2021/02/06 05:29:24;;;;;;;7.800001;6.55;;;;;;;4.43;100;94375.56;;;;
2021/02/06 05:30:24;;;;;;;10.15;7.05;;;;;;;4.57;100;94367.31;;;;
2021/02/06 05:31:27;;;;;;;10.15;7.05;;;;;;;4.57;100;94367.31;;;;
2021/02/06 05:32:37;;;;;;;10.15;7.05;;;;;;;4.57;100;94367.31;;;;
2021/02/06 05:33:37;;;;;;;10.15;7.05;;;;;;;4.57;100;94367.31;;;;
2021/02/06 05:34:38;;;;;;;10.15;7.05;;;;;;;4.57;100;94367.31;;;;
2021/02/06 05:35:39;;;;;;;10.15;7.05;;;;;;;4.57;100;94367.31;;;;
2021/02/06 05:36:42;;;;;;;10.15;7.05;;;;;;;4.57;100;94367.31;;;;
2021/02/06 05:37:45;;;;;;;10.15;7.05;;;;;;;4.57;100;94367.31;;;;
2021/02/06 05:38:46;;;;;;;10.15;7.05;;;;;;;4.57;100;94367.31;;;;
2021/02/06 05:39:46;;;;;;;10.15;7.05;;;;;;;4.57;100;94367.31;;;;
2021/02/06 05:40:52;;;;;;;9.150002;7.15;;;;;;;4.57;100;94361.97;;;;
2021/02/06 05:41:54;;;;;;;9.150002;7.15;;;;;;;4.57;100;94361.97;;;;
2021/02/06 05:43:00;;;;;;;9.150002;7.15;;;;;;;4.57;100;94361.97;;;;
2021/02/06 05:44:01;;;;;;;9.150002;7.15;;;;;;;4.57;100;94361.97;;;;
2021/02/06 05:45:02;;;;;;;9.150002;7.15;;;;;;;4.57;100;94361.97;;;;
2021/02/06 05:46:04;;;;;;;9.150002;7.15;;;;;;;4.57;100;94361.97;;;;
2021/02/06 05:47:07;;;;;;;9.150002;7.15;;;;;;;4.57;100;94361.97;;;;
2021/02/06 05:48:12;;;;;;;9.150002;7.15;;;;;;;4.57;100;94361.97;;;;
2021/02/06 05:49:17;;;;;;;9.150002;7.15;;;;;;;4.57;100;94361.97;;;;
2021/02/06 05:50:28;;;;;;;9.150002;7.15;;;;;;;4.57;100;94361.97;;;;
2021/02/06 05:51:34;;;;;;;8;6.799999;;;;;;;4.49;100;94338.61;;;;
2021/02/06 05:52:34;;;;;;;8;6.799999;;;;;;;4.49;100;94338.61;;;;
2021/02/06 05:53:34;;;;;;;8;6.799999;;;;;;;4.49;100;94338.61;;;;
2021/02/06 05:54:38;;;;;;;8;6.799999;;;;;;;4.49;100;94338.61;;;;
2021/02/06 05:55:40;;;;;;;8;6.799999;;;;;;;4.49;100;94338.61;;;;
2021/02/06 05:57:05;;;;;;;8;6.799999;;;;;;;4.49;100;94338.61;;;;
2021/02/06 05:58:07;;;;;;;8;6.799999;;;;;;;4.49;100;94338.61;;;;
2021/02/06 05:59:08;;;;;;;8;6.799999;;;;;;;4.49;100;94338.61;;;;
2021/02/06 06:00:08;;;;;;;8;6.799999;;;;;;;4.49;100;94338.61;;;;
2021/02/06 06:01:11;;;;;;;8;6.799999;;;;;;;4.49;100;94338.61;;;;
2021/02/06 06:02:13;;;;;;;9.049999;6.1;;;;;;;4.39;100;94315.06;;;;
2021/02/06 06:03:17;;;;;;;9.049999;6.1;;;;;;;4.39;100;94315.06;;;;
2021/02/06 06:04:20;;;;;;;9.049999;6.1;;;;;;;4.39;100;94315.06;;;;
2021/02/06 06:05:21;;;;;;;9.049999;6.1;;;;;;;4.39;100;94315.06;;;;
2021/02/06 06:06:22;;;;;;;9.049999;6.1;;;;;;;4.39;100;94315.06;;;;
2021/02/06 06:07:23;;;;;;;9.049999;6.1;;;;;;;4.39;100;94315.06;;;;
2021/02/06 06:08:26;;;;;;;9.049999;6.1;;;;;;;4.39;100;94315.06;;;;
2021/02/06 06:09:28;;;;;;;9.049999;6.1;;;;;;;4.39;100;94315.06;;;;
2021/02/06 06:10:29;;;;;;;9.049999;6.1;;;;;;;4.39;100;94315.06;;;;
2021/02/06 06:11:29;;;;;;;9.049999;6.1;;;;;;;4.39;100;94315.06;;;;
2021/02/06 06:12:32;;;;;;;9.049999;6.1;;;;;;;4.39;100;94315.06;;;;